createdAt,value
2019-03-30T00:02:05.211Z,14.20
2019-03-30T00:04:33.526Z,15.55
2019-03-30T00:07:01.841Z,14.53
2019-03-30T00:09:30.186Z,14.90
2019-03-30T00:11:58.636Z,14.70
2019-03-30T00:14:27.079Z,15.13
2019-03-30T00:16:55.377Z,16.42
2019-03-30T00:19:34.473Z,16.77
2019-03-30T00:21:54.096Z,14.90
2019-03-30T00:24:22.399Z,16.05
2019-03-30T00:26:50.693Z,15.90
2019-03-30T00:29:19.079Z,16.85
2019-03-30T00:31:47.392Z,16.32
2019-03-30T00:34:15.982Z,15.65
2019-03-30T00:36:44.562Z,16.17
2019-03-30T00:39:12.870Z,16.05
2019-03-30T00:41:41.184Z,15.88
2019-03-30T00:44:09.487Z,16.90
2019-03-30T00:46:37.823Z,16.70
2019-03-30T00:49:06.578Z,17.73
2019-03-30T00:51:34.902Z,17.27
2019-03-30T00:54:03.197Z,18.00
2019-03-30T00:56:31.505Z,15.80
2019-03-30T00:58:59.807Z,15.53
2019-03-30T01:01:28.095Z,17.70
2019-03-30T01:03:56.401Z,16.17
2019-03-30T01:06:24.701Z,17.15
2019-03-30T01:08:53.030Z,17.73
2019-03-30T01:11:21.653Z,18.48
2019-03-30T01:13:49.992Z,17.50
2019-03-30T01:16:18.290Z,17.15
2019-03-30T01:18:46.604Z,18.48
2019-03-30T01:21:14.904Z,16.73
2019-03-30T01:23:43.213Z,17.10
2019-03-30T01:26:11.889Z,17.80
2019-03-30T01:28:40.181Z,17.70
2019-03-30T01:31:08.501Z,17.95
2019-03-30T01:33:36.811Z,17.83
2019-03-30T01:36:05.113Z,18.17
2019-03-30T01:38:33.666Z,18.30
2019-03-30T01:41:02.305Z,17.75
2019-03-30T01:43:30.611Z,18.40
2019-03-30T01:45:59.379Z,17.15
2019-03-30T01:48:27.769Z,17.30
2019-03-30T01:50:56.117Z,18.17
2019-03-30T01:53:24.409Z,16.50
2019-03-30T01:55:52.713Z,16.52
2019-03-30T01:58:21.019Z,15.60
2019-03-30T02:00:49.519Z,15.75
2019-03-30T02:03:17.969Z,16.10
2019-03-30T02:05:46.277Z,15.83
2019-03-30T02:08:14.581Z,16.73
2019-03-30T02:10:45.304Z,16.27
2019-03-30T02:13:13.683Z,16.02
2019-03-30T02:15:41.990Z,15.28
2019-03-30T02:18:10.373Z,15.68
2019-03-30T02:20:43.534Z,15.48
2019-03-30T02:23:11.909Z,19.30
2019-03-30T02:25:40.778Z,18.02
2019-03-30T02:28:09.799Z,22.80
2019-03-30T02:30:38.088Z,24.10
2019-03-30T02:33:06.642Z,23.65
2019-03-30T02:35:35.002Z,22.90
2019-03-30T02:38:03.365Z,22.60
2019-03-30T02:40:31.654Z,21.57
2019-03-30T02:43:00.506Z,21.77
2019-03-30T02:45:29.262Z,23.80
2019-03-30T02:47:57.843Z,24.27
2019-03-30T02:50:26.154Z,22.35
2019-03-30T02:52:54.531Z,18.92
2019-03-30T02:55:22.840Z,20.02
2019-03-30T02:57:51.189Z,16.40
2019-03-30T03:00:20.095Z,16.97
2019-03-30T03:02:48.395Z,16.73
2019-03-30T03:05:16.953Z,16.62
2019-03-30T03:07:45.482Z,15.70
2019-03-30T03:10:16.325Z,15.50
2019-03-30T03:12:44.628Z,15.88
2019-03-30T03:15:13.008Z,15.58
2019-03-30T03:17:41.303Z,14.90
2019-03-30T03:20:10.242Z,15.68
2019-03-30T03:22:38.562Z,16.13
2019-03-30T03:25:07.136Z,16.23
2019-03-30T03:27:35.473Z,16.30
2019-03-30T03:30:04.330Z,15.58
2019-03-30T03:32:32.656Z,14.93
2019-03-30T03:35:01.037Z,15.80
2019-03-30T03:37:43.205Z,15.60
2019-03-30T03:39:59.372Z,15.00
2019-03-30T03:42:27.697Z,14.90
2019-03-30T03:44:56.287Z,14.73
2019-03-30T03:47:24.605Z,15.45
2019-03-30T03:49:52.898Z,15.53
2019-03-30T03:52:21.370Z,13.70
2019-03-30T03:54:50.298Z,16.37
2019-03-30T03:57:19.574Z,16.30
2019-03-30T03:59:49.642Z,16.62
2019-03-30T04:02:18.341Z,16.05
2019-03-30T04:04:47.773Z,15.60
2019-03-30T04:07:17.799Z,15.00
2019-03-30T04:09:47.718Z,14.60
2019-03-30T04:12:17.093Z,14.93
2019-03-30T04:14:48.921Z,15.70
2019-03-30T04:17:17.248Z,14.80
2019-03-30T04:19:45.557Z,14.45
2019-03-30T04:22:13.883Z,15.20
2019-03-30T04:24:42.187Z,14.05
2019-03-30T04:27:10.505Z,14.68
2019-03-30T04:29:38.826Z,14.83
2019-03-30T04:32:07.286Z,14.90
2019-03-30T04:34:35.678Z,14.87
2019-03-30T04:37:03.979Z,14.70
2019-03-30T04:39:32.312Z,15.23
2019-03-30T04:42:00.600Z,14.05
2019-03-30T04:44:29.196Z,14.03
2019-03-30T04:46:57.554Z,13.65
2019-03-30T04:49:25.857Z,13.80
2019-03-30T04:51:57.689Z,13.83
2019-03-30T04:54:24.506Z,14.23
2019-03-30T04:56:52.820Z,13.83
2019-03-30T04:59:21.116Z,13.30
2019-03-30T05:01:49.676Z,14.25
2019-03-30T05:04:18.054Z,15.43
2019-03-30T05:06:46.371Z,15.40
2019-03-30T05:09:14.657Z,14.60
2019-03-30T05:11:42.991Z,14.23
2019-03-30T05:14:11.277Z,14.00
2019-03-30T05:16:39.606Z,14.20
2019-03-30T05:19:07.930Z,14.80
2019-03-30T05:21:36.327Z,13.50
2019-03-30T05:24:04.622Z,13.05
2019-03-30T05:26:32.912Z,13.93
2019-03-30T05:29:01.233Z,13.98
2019-03-30T05:31:29.603Z,14.20
2019-03-30T05:33:57.941Z,14.23
2019-03-30T05:36:26.488Z,13.70
2019-03-30T05:38:54.797Z,12.80
2019-03-30T05:41:23.097Z,12.70
2019-03-30T05:43:51.408Z,13.38
2019-03-30T05:46:19.733Z,14.70
2019-03-30T05:48:48.063Z,14.63
2019-03-30T05:51:16.357Z,12.93
2019-03-30T05:53:44.661Z,13.50
2019-03-30T05:56:12.973Z,13.07
2019-03-30T05:58:41.269Z,12.88
2019-03-30T06:01:09.637Z,13.40
2019-03-30T06:03:37.971Z,12.40
2019-03-30T06:06:06.284Z,12.20
2019-03-30T06:08:34.584Z,11.90
2019-03-30T06:11:03.153Z,11.93
2019-03-30T06:13:31.469Z,11.68
2019-03-30T06:15:59.756Z,12.50
2019-03-30T06:18:28.058Z,11.93
2019-03-30T06:20:56.374Z,12.00
2019-03-30T06:23:24.679Z,11.97
2019-03-30T06:25:52.989Z,12.03
2019-03-30T06:28:21.389Z,11.75
2019-03-30T06:30:49.722Z,12.10
2019-03-30T06:33:18.049Z,13.10
2019-03-30T06:35:46.700Z,12.60
2019-03-30T06:38:15.286Z,12.90
2019-03-30T06:40:43.836Z,11.90
2019-03-30T06:43:12.145Z,12.68
2019-03-30T06:45:40.470Z,12.45
2019-03-30T06:48:08.757Z,11.90
2019-03-30T06:50:37.083Z,11.70
2019-03-30T06:53:05.392Z,11.43
2019-03-30T06:55:33.711Z,12.13
2019-03-30T06:58:02.027Z,11.30
2019-03-30T07:00:35.121Z,12.40
2019-03-30T07:03:04.873Z,11.73
2019-03-30T07:05:36.354Z,12.60
2019-03-30T07:08:04.769Z,12.07
2019-03-30T07:10:33.225Z,12.03
2019-03-30T07:13:03.445Z,11.97
2019-03-30T07:15:33.082Z,11.18
2019-03-30T07:18:01.557Z,12.03
2019-03-30T07:20:30.217Z,11.17
2019-03-30T07:23:11.390Z,11.00
2019-03-30T07:25:28.913Z,11.43
2019-03-30T07:27:57.604Z,10.82
2019-03-30T07:30:25.915Z,10.70
2019-03-30T07:32:54.408Z,11.20
2019-03-30T07:35:22.722Z,12.10
2019-03-30T07:37:51.059Z,10.55
2019-03-30T07:40:19.348Z,11.05
2019-03-30T07:42:47.661Z,11.40
2019-03-30T07:45:16.152Z,11.30
2019-03-30T07:47:44.458Z,11.85
2019-03-30T07:50:13.223Z,12.20
2019-03-30T07:52:41.535Z,11.50
2019-03-30T07:55:09.992Z,10.80
2019-03-30T07:57:38.291Z,11.70
2019-03-30T08:00:08.376Z,10.40
2019-03-30T08:02:36.690Z,11.40
2019-03-30T08:05:06.874Z,11.03
2019-03-30T08:07:35.687Z,11.27
2019-03-30T08:10:05.015Z,10.88
2019-03-30T08:12:33.478Z,10.60
2019-03-30T08:15:01.804Z,10.55
2019-03-30T08:17:30.409Z,10.90
2019-03-30T08:19:58.712Z,11.12
2019-03-30T08:22:27.039Z,11.80
2019-03-30T08:24:55.646Z,11.65
2019-03-30T08:27:23.963Z,10.72
2019-03-30T08:29:52.272Z,10.98
2019-03-30T08:32:20.584Z,10.80
2019-03-30T08:34:49.169Z,11.22
2019-03-30T08:37:17.506Z,10.05
2019-03-30T08:39:46.124Z,11.08
2019-03-30T08:42:14.460Z,10.72
2019-03-30T08:44:42.830Z,11.65
2019-03-30T08:47:11.455Z,10.95
2019-03-30T08:49:39.773Z,10.70
2019-03-30T08:52:08.436Z,10.78
2019-03-30T08:54:36.760Z,11.20
2019-03-30T08:57:05.063Z,9.40
2019-03-30T08:59:33.399Z,10.05
2019-03-30T09:02:01.712Z,10.68
2019-03-30T09:04:30.019Z,9.80
2019-03-30T09:06:58.596Z,9.93
2019-03-30T09:09:26.906Z,9.10
2019-03-30T09:11:55.206Z,8.90
2019-03-30T09:14:23.509Z,8.00
2019-03-30T09:16:51.834Z,7.70
2019-03-30T09:19:20.136Z,8.68
2019-03-30T09:21:48.449Z,7.90
2019-03-30T09:24:17.040Z,8.15
2019-03-30T09:26:45.346Z,7.55
2019-03-30T09:29:13.721Z,7.50
2019-03-30T09:31:42.047Z,7.37
2019-03-30T09:34:10.650Z,9.03
2019-03-30T09:36:39.098Z,10.65
2019-03-30T09:39:07.488Z,11.90
2019-03-30T09:41:36.096Z,9.10
2019-03-30T09:44:04.405Z,7.50
2019-03-30T09:46:32.708Z,8.70
2019-03-30T09:49:00.997Z,7.42
2019-03-30T09:51:29.320Z,7.60
2019-03-30T09:53:57.629Z,11.15
2019-03-30T09:56:26.260Z,9.98
2019-03-30T09:58:54.561Z,7.70
2019-03-30T10:01:22.940Z,6.67
2019-03-30T10:03:51.282Z,7.70
2019-03-30T10:06:19.600Z,6.60
2019-03-30T10:08:47.974Z,7.00
2019-03-30T10:11:16.302Z,6.53
2019-03-30T10:13:44.626Z,5.90
2019-03-30T10:16:13.393Z,6.40
2019-03-30T10:18:41.713Z,7.12
2019-03-30T10:21:10.018Z,9.48
2019-03-30T10:23:38.350Z,13.65
2019-03-30T10:26:06.652Z,10.95
2019-03-30T10:28:34.961Z,6.95
2019-03-30T10:31:03.262Z,6.92
2019-03-30T10:33:31.614Z,6.35
2019-03-30T10:35:59.913Z,6.78
2019-03-30T10:38:28.239Z,6.20
2019-03-30T10:40:56.544Z,6.10
2019-03-30T10:43:24.869Z,6.28
2019-03-30T10:45:53.258Z,6.00
2019-03-30T10:48:21.574Z,7.00
2019-03-30T10:50:50.288Z,6.00
2019-03-30T10:53:18.599Z,7.10
2019-03-30T10:55:46.887Z,6.55
2019-03-30T10:58:15.173Z,7.33
2019-03-30T11:00:43.549Z,7.10
2019-03-30T11:03:11.856Z,7.60
2019-03-30T11:05:40.483Z,7.30
2019-03-30T11:08:08.805Z,7.15
2019-03-30T11:10:37.123Z,7.50
2019-03-30T11:13:05.653Z,9.33
2019-03-30T11:15:34.502Z,9.60
2019-03-30T11:18:02.860Z,10.40
2019-03-30T11:20:31.179Z,10.93
2019-03-30T11:22:59.824Z,9.75
2019-03-30T11:25:28.118Z,10.70
2019-03-30T11:27:56.438Z,9.25
2019-03-30T11:30:24.783Z,8.40
2019-03-30T11:32:53.083Z,8.37
2019-03-30T11:35:21.383Z,8.20
2019-03-30T11:37:49.708Z,7.67
2019-03-30T11:40:17.998Z,8.20
2019-03-30T11:42:46.380Z,7.90
2019-03-30T11:45:15.028Z,7.53
2019-03-30T11:47:43.619Z,7.47
2019-03-30T11:50:12.090Z,7.25
2019-03-30T11:52:40.416Z,8.30
2019-03-30T11:55:21.219Z,7.70
2019-03-30T11:57:38.843Z,8.65
2019-03-30T12:00:07.871Z,8.23
2019-03-30T12:02:36.183Z,8.08
2019-03-30T12:05:06.520Z,7.78
2019-03-30T12:07:34.873Z,7.60
2019-03-30T12:10:03.445Z,7.53
2019-03-30T12:12:31.760Z,7.78
2019-03-30T12:15:00.495Z,7.85
2019-03-30T12:17:28.719Z,7.67
2019-03-30T12:19:57.035Z,8.45
2019-03-30T12:22:25.343Z,8.33
2019-03-30T12:24:53.654Z,7.55
2019-03-30T12:27:22.385Z,7.62
2019-03-30T12:29:50.692Z,6.55
2019-03-30T12:32:19.339Z,6.10
2019-03-30T12:34:47.643Z,6.20
2019-03-30T12:37:15.946Z,6.47
2019-03-30T12:39:44.254Z,6.30
2019-03-30T12:42:12.543Z,6.73
2019-03-30T12:44:40.858Z,6.13
2019-03-30T12:47:10.494Z,6.33
2019-03-30T12:49:38.950Z,7.08
2019-03-30T12:52:07.255Z,7.05
2019-03-30T12:54:35.627Z,7.12
2019-03-30T12:57:04.262Z,7.17
2019-03-30T12:59:32.578Z,6.62
2019-03-30T13:02:00.882Z,6.40
2019-03-30T13:04:29.186Z,6.33
2019-03-30T13:06:57.490Z,6.92
2019-03-30T13:09:25.902Z,6.75
2019-03-30T13:11:54.194Z,6.72
2019-03-30T13:14:22.522Z,6.75
2019-03-30T13:16:50.815Z,7.60
2019-03-30T13:19:19.207Z,7.20
2019-03-30T13:21:53.072Z,7.50
2019-03-30T13:24:17.583Z,7.00
2019-03-30T13:26:45.897Z,7.05
2019-03-30T13:29:14.514Z,7.80
2019-03-30T13:31:42.830Z,7.80
2019-03-30T13:34:11.117Z,7.10
2019-03-30T13:36:45.122Z,6.80
2019-03-30T13:39:13.583Z,7.00
2019-03-30T13:41:41.891Z,6.83
2019-03-30T13:44:10.513Z,6.28
2019-03-30T13:46:38.841Z,6.70
2019-03-30T13:49:07.219Z,6.50
2019-03-30T13:51:35.613Z,6.28
2019-03-30T13:54:04.339Z,6.42
2019-03-30T13:56:32.706Z,7.30
2019-03-30T13:59:01.074Z,7.30
2019-03-30T14:01:29.384Z,7.03
2019-03-30T14:03:57.699Z,7.20
2019-03-30T14:06:25.987Z,6.20
2019-03-30T14:08:54.613Z,6.75
2019-03-30T14:11:22.937Z,6.17
2019-03-30T14:13:51.240Z,7.10
2019-03-30T14:16:19.533Z,6.80
2019-03-30T14:18:47.848Z,6.85
2019-03-30T14:21:16.225Z,6.53
2019-03-30T14:23:44.597Z,6.50
2019-03-30T14:26:13.028Z,6.10
2019-03-30T14:28:41.645Z,6.03
2019-03-30T14:31:09.968Z,5.72
2019-03-30T14:33:38.271Z,5.67
2019-03-30T14:36:06.663Z,6.50
2019-03-30T14:38:34.975Z,5.90
2019-03-30T14:41:03.963Z,5.97
2019-03-30T14:43:32.368Z,6.62
2019-03-30T14:46:00.692Z,7.30
2019-03-30T14:48:29.005Z,6.90
2019-03-30T14:50:57.666Z,6.80
2019-03-30T14:53:26.332Z,6.97
2019-03-30T14:55:54.716Z,6.70
2019-03-30T14:58:23.088Z,7.30
2019-03-30T15:00:51.410Z,7.15
2019-03-30T15:03:19.719Z,6.75
2019-03-30T15:05:48.093Z,6.60
2019-03-30T15:08:16.417Z,8.20
2019-03-30T15:10:44.699Z,8.05
2019-03-30T15:13:13.270Z,7.50
2019-03-30T15:15:41.566Z,8.20
2019-03-30T15:18:09.887Z,8.83
2019-03-30T15:20:38.178Z,8.60
2019-03-30T15:23:06.497Z,9.10
2019-03-30T15:25:34.802Z,8.20
2019-03-30T15:28:03.114Z,7.63
2019-03-30T15:30:31.442Z,7.83
2019-03-30T15:33:03.149Z,8.30
2019-03-30T15:35:29.785Z,7.62
2019-03-30T15:37:58.123Z,7.12
2019-03-30T15:40:26.411Z,7.42
2019-03-30T15:42:54.757Z,7.70
2019-03-30T15:45:23.054Z,7.40
2019-03-30T15:47:51.362Z,7.90
2019-03-30T15:50:20.261Z,12.82
2019-03-30T15:52:48.601Z,12.83
2019-03-30T15:55:16.922Z,10.70
2019-03-30T15:57:45.235Z,12.80
2019-03-30T16:00:15.606Z,13.65
2019-03-30T16:02:43.950Z,10.90
2019-03-30T16:05:15.506Z,9.20
2019-03-30T16:07:42.722Z,8.20
2019-03-30T16:10:11.279Z,9.60
2019-03-30T16:12:39.618Z,8.58
2019-03-30T16:15:09.184Z,8.53
2019-03-30T16:17:37.561Z,8.45
2019-03-30T16:20:07.001Z,8.25
2019-03-30T16:22:35.389Z,10.50
2019-03-30T16:25:04.955Z,18.62
2019-03-30T16:27:33.551Z,19.02
2019-03-30T16:30:02.246Z,11.57
2019-03-30T16:32:30.566Z,10.25
2019-03-30T16:34:58.857Z,9.20
2019-03-30T16:37:27.165Z,9.40
2019-03-30T16:39:55.490Z,10.35
2019-03-30T16:42:23.803Z,11.57
2019-03-30T16:44:52.405Z,17.70
2019-03-30T16:47:20.739Z,11.68
2019-03-30T16:49:49.063Z,10.10
2019-03-30T16:52:17.466Z,8.75
2019-03-30T16:54:46.030Z,9.00
2019-03-30T16:57:14.362Z,8.98
2019-03-30T16:59:42.655Z,8.55
2019-03-30T17:02:10.996Z,8.50
2019-03-30T17:04:39.657Z,8.50
2019-03-30T17:07:08.209Z,8.23
2019-03-30T17:09:36.805Z,8.40
2019-03-30T17:12:05.093Z,8.78
2019-03-30T17:14:33.419Z,12.63
2019-03-30T17:17:01.776Z,17.45
2019-03-30T17:19:30.087Z,13.48
2019-03-30T17:21:58.410Z,14.05
2019-03-30T17:24:26.727Z,13.43
2019-03-30T17:26:55.352Z,9.90
2019-03-30T17:29:23.939Z,10.18
2019-03-30T17:31:52.233Z,10.82
2019-03-30T17:34:20.910Z,13.80
2019-03-30T17:36:49.216Z,10.30
2019-03-30T17:39:17.523Z,10.20
2019-03-30T17:41:46.133Z,11.80
2019-03-30T17:44:14.542Z,11.57
2019-03-30T17:46:42.846Z,11.00
2019-03-30T17:49:11.475Z,10.60
2019-03-30T17:51:39.796Z,10.08
2019-03-30T17:54:08.114Z,11.00
2019-03-30T17:56:36.413Z,10.85
2019-03-30T17:59:04.939Z,11.48
2019-03-30T18:01:33.242Z,11.90
2019-03-30T18:04:01.582Z,11.73
2019-03-30T18:06:29.886Z,12.18
2019-03-30T18:08:58.255Z,12.20
2019-03-30T18:11:26.547Z,11.55
2019-03-30T18:13:55.156Z,11.75
2019-03-30T18:16:23.450Z,12.28
2019-03-30T18:18:52.126Z,11.60
2019-03-30T18:21:20.431Z,11.43
2019-03-30T18:23:48.773Z,12.63
2019-03-30T18:26:17.080Z,11.63
2019-03-30T18:28:45.635Z,12.20
2019-03-30T18:31:14.023Z,11.90
2019-03-30T18:33:42.918Z,11.80
2019-03-30T18:36:12.764Z,12.30
2019-03-30T18:38:41.081Z,11.90
2019-03-30T18:41:09.383Z,11.30
2019-03-30T18:43:37.696Z,11.30
2019-03-30T18:46:06.078Z,11.07
2019-03-30T18:48:34.367Z,11.68
2019-03-30T18:51:02.700Z,11.40
2019-03-30T18:53:31.003Z,11.08
2019-03-30T18:55:59.542Z,11.60
2019-03-30T18:58:40.947Z,13.00
2019-03-30T19:00:58.255Z,12.75
2019-03-30T19:03:26.572Z,12.93
2019-03-30T19:05:54.936Z,14.50
2019-03-30T19:08:23.272Z,14.23
2019-03-30T19:10:51.579Z,15.30
2019-03-30T19:13:19.907Z,14.53
2019-03-30T19:15:48.216Z,15.58
2019-03-30T19:18:16.782Z,15.03
2019-03-30T19:20:45.125Z,16.02
2019-03-30T19:23:13.423Z,17.00
2019-03-30T19:25:41.743Z,16.32
2019-03-30T19:28:10.504Z,15.35
2019-03-30T19:30:41.940Z,15.60
2019-03-30T19:33:08.863Z,14.18
2019-03-30T19:35:37.225Z,14.78
2019-03-30T19:38:05.540Z,15.78
2019-03-30T19:40:34.160Z,15.93
2019-03-30T19:43:02.558Z,16.80
2019-03-30T19:45:30.862Z,17.77
2019-03-30T19:47:59.684Z,17.07
2019-03-30T19:50:28.109Z,16.35
2019-03-30T19:52:56.419Z,16.60
2019-03-30T19:55:24.745Z,16.40
2019-03-30T19:57:53.053Z,15.60
2019-03-30T20:00:21.702Z,15.43
2019-03-30T20:02:50.273Z,16.57
2019-03-30T20:05:18.726Z,17.20
2019-03-30T20:07:47.337Z,17.60
2019-03-30T20:10:15.922Z,16.25
2019-03-30T20:12:44.600Z,16.87
2019-03-30T20:15:12.978Z,16.95
2019-03-30T20:17:41.560Z,16.77
2019-03-30T20:20:10.051Z,17.37
2019-03-30T20:22:38.361Z,17.10
2019-03-30T20:25:09.016Z,16.55
2019-03-30T20:27:37.315Z,15.40
2019-03-30T20:30:09.747Z,17.10
2019-03-30T20:32:38.136Z,17.75
2019-03-30T20:35:08.094Z,17.17
2019-03-30T20:37:36.671Z,16.90
2019-03-30T20:40:09.215Z,15.93
2019-03-30T20:42:37.601Z,16.00
2019-03-30T20:45:07.436Z,16.55
2019-03-30T20:47:35.837Z,17.10
2019-03-30T20:50:06.170Z,16.62
2019-03-30T20:52:34.501Z,16.00
2019-03-30T20:55:02.795Z,17.15
2019-03-30T20:57:31.120Z,16.70
2019-03-30T20:59:59.494Z,16.52
2019-03-30T21:02:27.820Z,17.60
2019-03-30T21:04:56.165Z,21.57
2019-03-30T21:07:24.831Z,17.60
2019-03-30T21:09:53.160Z,17.40
2019-03-30T21:12:21.783Z,18.17
2019-03-30T21:14:50.104Z,18.75
2019-03-30T21:17:18.407Z,20.10
2019-03-30T21:19:46.754Z,20.00
2019-03-30T21:22:15.052Z,20.12
2019-03-30T21:24:43.664Z,18.82
2019-03-30T21:27:11.986Z,19.50
2019-03-30T21:29:53.636Z,19.70
2019-03-30T21:32:10.376Z,20.10
2019-03-30T21:34:38.737Z,19.62
2019-03-30T21:37:07.393Z,19.70
2019-03-30T21:39:35.988Z,18.97
2019-03-30T21:42:04.315Z,19.52
2019-03-30T21:44:32.945Z,19.45
2019-03-30T21:47:01.267Z,19.62
2019-03-30T21:49:31.178Z,19.33
2019-03-30T21:51:59.551Z,19.37
2019-03-30T21:54:28.899Z,19.30
2019-03-30T21:56:57.218Z,19.12
2019-03-30T21:59:25.590Z,19.10
2019-03-30T22:01:53.898Z,18.85
2019-03-30T22:04:22.283Z,20.10
2019-03-30T22:06:50.914Z,18.90
2019-03-30T22:09:19.245Z,20.00
2019-03-30T22:11:47.620Z,21.68
2019-03-30T22:14:15.996Z,20.62
2019-03-30T22:16:44.292Z,20.40
2019-03-30T22:19:12.692Z,21.87
2019-03-30T22:21:40.986Z,21.07
2019-03-30T22:24:11.121Z,20.92
2019-03-30T22:26:39.508Z,21.15
2019-03-30T22:29:07.849Z,21.00
2019-03-30T22:31:36.162Z,20.68
2019-03-30T22:34:04.454Z,20.30
2019-03-30T22:36:32.782Z,20.82
2019-03-30T22:39:01.076Z,21.42
2019-03-30T22:41:29.478Z,21.00
2019-03-30T22:43:57.846Z,20.32
2019-03-30T22:46:26.172Z,20.90
2019-03-30T22:48:54.785Z,20.83
2019-03-30T22:51:23.093Z,20.30
2019-03-30T22:53:51.399Z,20.70
2019-03-30T22:56:19.716Z,20.43
2019-03-30T22:58:48.291Z,21.02
2019-03-30T23:01:18.312Z,20.32
2019-03-30T23:03:46.702Z,19.90
2019-03-30T23:06:15.285Z,20.85
2019-03-30T23:08:43.592Z,20.40
2019-03-30T23:11:11.966Z,20.65
2019-03-30T23:13:40.280Z,20.15
2019-03-30T23:16:08.633Z,20.60
2019-03-30T23:18:36.945Z,20.05
2019-03-30T23:21:05.241Z,19.80
2019-03-30T23:23:33.581Z,20.80
2019-03-30T23:26:02.110Z,20.20
2019-03-30T23:28:30.426Z,20.20
2019-03-30T23:30:58.750Z,19.50
2019-03-30T23:33:27.339Z,20.13
2019-03-30T23:35:55.630Z,20.25
2019-03-30T23:38:24.197Z,20.32
2019-03-30T23:40:52.543Z,19.73
2019-03-30T23:43:20.863Z,20.15
2019-03-30T23:45:49.336Z,19.95
2019-03-30T23:48:17.646Z,19.50
2019-03-30T23:50:45.940Z,19.37
2019-03-30T23:53:14.265Z,20.45
2019-03-30T23:55:42.561Z,20.68
2019-03-30T23:58:10.867Z,20.00
